Time;durP1;ratioP1;P1;durP2;ratioP2;P2;SDS_P1;SDS_P2;PMS_P1;PMS_P2;Temp;Humidity;BMP_temperature;BMP_pressure;BME280_temperature;BME280_humidity;BME280_pressure;Samples;Min_cycle;Max_cycle;Signal;HPM_P1;HPM_P2
2022/07/26 00:02:18;;;;;;;27.43;7.23;;;;;;;26.93;55.77;98903.28;7315589;19;130001;-37
2022/07/26 00:04:44;;;;;;;37.67;8.17;;;;;;;26.94;55.70;98920.75;7317670;19;129715;-41
2022/07/26 00:07:09;;;;;;;28.97;7.13;;;;;;;26.93;55.11;98921.75;7316037;19;129484;-41
2022/07/26 00:09:35;;;;;;;25.37;7.30;;;;;;;26.96;55.42;98932.94;7316218;19;129200;-38
2022/07/26 00:12:00;;;;;;;42.03;7.83;;;;;;;26.96;55.96;98943.50;7317323;19;129285;-42
2022/07/26 00:14:25;;;;;;;21.90;6.83;;;;;;;26.97;55.37;98945.13;7315313;19;129423;-39
2022/07/26 00:16:51;;;;;;;21.23;6.83;;;;;;;26.94;54.92;98947.13;7315669;19;129141;-43
2022/07/26 00:19:17;;;;;;;27.10;7.07;;;;;;;26.96;55.59;98949.56;7315682;19;129649;-40
2022/07/26 00:21:42;;;;;;;11.63;6.23;;;;;;;26.97;55.17;98960.94;7314909;19;129267;-43
2022/07/26 00:24:07;;;;;;;51.27;9.03;;;;;;;26.93;55.31;98950.78;7316312;19;129339;-39
2022/07/26 00:26:33;;;;;;;24.93;6.90;;;;;;;26.87;55.22;98934.91;7315846;19;130366;-40
2022/07/26 00:28:58;;;;;;;45.10;8.03;;;;;;;26.96;55.26;98944.28;7315371;19;129045;-41
2022/07/26 00:31:24;;;;;;;25.23;7.17;;;;;;;26.96;55.60;98956.69;7316669;19;129073;-40
2022/07/26 00:33:50;;;;;;;16.50;5.83;;;;;;;26.95;55.46;98963.78;7315519;19;128858;-37
2022/07/26 00:36:15;;;;;;;38.53;8.10;;;;;;;26.96;55.73;98960.13;7315912;19;130462;-37
2022/07/26 00:38:41;;;;;;;21.93;6.37;;;;;;;26.96;55.59;98964.59;7315509;19;130672;-44
2022/07/26 00:41:06;;;;;;;41.07;7.83;;;;;;;26.95;55.72;98966.41;7315731;19;129257;-39
2022/07/26 00:43:32;;;;;;;22.50;6.07;;;;;;;26.97;55.63;98969.69;7314011;19;129400;-37
2022/07/26 00:45:58;;;;;;;34.40;7.53;;;;;;;26.96;55.30;98969.88;7315729;19;129371;-37
2022/07/26 00:48:23;;;;;;;25.43;6.33;;;;;;;26.92;55.15;98949.13;7312218;19;132193;-41
2022/07/26 00:50:51;;;;;;;33.73;7.70;;;;;;;26.98;55.33;98958.13;7315843;19;128858;-38
2022/07/26 00:53:22;;;;;;;34.90;7.45;;;;;;;26.96;57.39;98969.88;7315484;19;129973;-40
2022/07/26 00:55:48;;;;;;;43.95;7.95;;;;;;;26.95;55.36;98966.41;7315670;19;130235;-38
2022/07/26 00:58:14;;;;;;;54.95;8.75;;;;;;;26.96;55.40;98969.88;7313256;19;129122;-37
2022/07/26 01:00:40;;;;;;;18.77;6.47;;;;;;;26.96;55.45;98983.88;7317076;19;129330;-39
2022/07/26 01:03:06;;;;;;;41.67;7.77;;;;;;;26.97;55.25;98987.34;7316150;19;130014;-40
2022/07/26 01:05:31;;;;;;;27.30;6.97;;;;;;;26.96;55.45;98986.50;7316367;19;131046;-37
2022/07/26 01:07:57;;;;;;;40.60;7.60;;;;;;;27.00;55.58;98992.22;7308894;19;130364;-41
2022/07/26 01:10:23;;;;;;;40.97;7.50;;;;;;;26.98;55.74;98995.06;7314717;19;129163;-38
2022/07/26 01:12:48;;;;;;;41.47;7.53;;;;;;;26.98;55.54;99016.16;7315739;19;129347;-39
2022/07/26 01:15:15;;;;;;;28.17;6.53;;;;;;;26.98;55.43;99012.69;7316194;19;130127;-41
2022/07/26 01:17:40;;;;;;;55.33;8.23;;;;;;;26.90;55.56;98993.38;7312969;19;130280;-41
2022/07/26 01:20:08;;;;;;;30.63;6.60;;;;;;;26.97;56.44;99025.09;7316470;19;129267;-38
2022/07/26 01:22:33;;;;;;;11.27;5.43;;;;;;;26.99;55.22;99017.00;7314688;19;129244;-38
2022/07/26 01:24:59;;;;;;;31.00;6.67;;;;;;;26.98;56.04;99028.53;7316591;19;129477;-41
2022/07/26 01:27:24;;;;;;;22.10;6.40;;;;;;;26.88;55.86;99016.47;7313525;19;129250;-39
2022/07/26 01:29:50;;;;;;;24.77;5.73;;;;;;;26.99;56.16;99032.81;7315388;19;128838;-41
2022/07/26 01:32:17;;;;;;;38.97;7.45;;;;;;;26.97;55.83;99040.09;7316202;19;129468;-41
2022/07/26 01:34:42;;;;;;;31.67;6.50;;;;;;;26.98;55.62;99039.09;7315209;19;129677;-40
2022/07/26 01:37:08;;;;;;;19.50;6.07;;;;;;;27.01;55.63;99049.28;7314661;19;131068;-41
2022/07/26 01:39:33;;;;;;;25.40;5.73;;;;;;;26.91;55.67;99026.66;7314464;19;129424;-42
2022/07/26 01:41:58;;;;;;;29.57;6.40;;;;;;;27.01;55.52;99036.09;7313188;19;129488;-39
2022/07/26 01:44:24;;;;;;;13.63;5.43;;;;;;;26.91;56.23;99010.81;7314183;19;130353;-42
2022/07/26 01:46:49;;;;;;;34.83;6.40;;;;;;;26.98;55.39;99026.72;7313762;19;130386;-36
2022/07/26 01:49:15;;;;;;;22.97;5.70;;;;;;;27.00;55.64;99034.44;7314103;19;129133;-39
2022/07/26 01:51:40;;;;;;;36.43;6.87;;;;;;;26.99;55.84;99027.53;7314329;19;130851;-36
2022/07/26 01:54:06;;;;;;;31.57;6.27;;;;;;;27.01;55.31;99026.34;7314676;19;131113;-41
2022/07/26 01:56:31;;;;;;;38.80;7.30;;;;;;;27.00;55.75;99015.97;7312263;19;130892;-43
2022/07/26 01:58:57;;;;;;;35.87;6.57;;;;;;;26.98;55.97;99002.97;7314366;19;129024;-40
2022/07/26 02:01:22;;;;;;;30.73;6.57;;;;;;;27.00;55.62;99002.78;7312646;19;129047;-41
2022/07/26 02:03:47;;;;;;;22.00;6.10;;;;;;;26.93;55.96;98994.81;7313918;19;129232;-41
2022/07/26 02:06:13;;;;;;;27.50;5.83;;;;;;;27.01;55.66;98999.94;7313836;19;129287;-37
2022/07/26 02:08:38;;;;;;;24.50;6.20;;;;;;;27.01;55.85;99004.44;7313677;19;129119;-41
2022/07/26 02:11:04;;;;;;;35.73;6.73;;;;;;;26.98;55.40;98996.88;7312795;19;128971;-40
2022/07/26 02:13:34;;;;;;;37.83;7.07;;;;;;;27.01;57.55;99009.72;7314092;19;130064;-43
2022/07/26 02:16:01;;;;;;;52.92;8.00;;;;;;;26.98;55.86;99004.78;7313019;19;131175;-42
2022/07/26 02:18:28;;;;;;;;;;;;;;;27.05;58.92;99001.22;7310820;19;129878;-41
2022/07/26 02:20:53;;;;;;;23.92;5.80;;;;;;;27.02;55.20;99003.41;7313656;19;129017;-34
2022/07/26 02:23:19;;;;;;;32.20;6.00;;;;;;;27.00;55.40;99008.06;7313634;19;130329;-39
2022/07/26 02:25:45;;;;;;;20.38;5.53;;;;;;;26.99;56.10;99017.00;7313422;19;129373;-40
2022/07/26 02:28:10;;;;;;;46.47;7.67;;;;;;;27.02;55.64;99021.88;7309928;19;129031;-39
2022/07/26 02:30:37;;;;;;;33.93;6.60;;;;;;;27.02;56.14;99021.88;7313493;19;129171;-42
2022/07/26 02:33:02;;;;;;;45.75;7.70;;;;;;;27.03;56.22;99018.22;7311973;19;130987;-38
2022/07/26 02:35:30;;;;;;;32.03;6.43;;;;;;;27.02;56.05;99013.97;7313504;19;130260;-41
2022/07/26 02:38:01;;;;;;;33.60;6.53;;;;;;;27.01;57.13;99021.06;7310678;19;128970;-41
2022/07/26 02:40:27;;;;;;;35.35;6.78;;;;;;;27.02;56.05;99013.97;7311808;19;128833;-40
2022/07/26 02:42:52;;;;;;;27.73;5.67;;;;;;;27.01;56.10;99017.63;7308781;19;129639;-41
2022/07/26 02:45:18;;;;;;;31.17;6.87;;;;;;;27.01;55.77;99020.25;7312378;19;130299;-41
2022/07/26 02:47:48;;;;;;;26.77;6.37;;;;;;;27.00;57.26;99015.97;7311894;19;129180;-37
2022/07/26 02:50:19;;;;;;;32.28;6.25;;;;;;;26.92;56.29;99001.91;7311198;19;129090;-41
2022/07/26 02:52:48;;;;;;;23.70;5.68;;;;;;;26.93;56.30;99018.56;7311884;19;132617;-41
2022/07/26 02:55:15;;;;;;;26.95;5.50;;;;;;;27.00;56.29;99035.28;7312019;19;130393;-42
2022/07/26 02:57:41;;;;;;;42.55;7.05;;;;;;;27.01;55.99;99036.09;7310362;19;129427;-42
2022/07/26 03:00:08;;;;;;;29.43;6.00;;;;;;;27.01;55.84;99036.88;7312048;19;128832;-39
2022/07/26 03:02:34;;;;;;;12.80;5.03;;;;;;;27.00;56.04;99045.00;7310665;19;129419;-39
2022/07/26 03:05:01;;;;;;;37.93;6.67;;;;;;;27.02;56.21;99048.28;7311545;19;130156;-43
2022/07/26 03:07:26;;;;;;;23.05;5.53;;;;;;;27.01;55.82;99044.81;7315386;19;129291;-38
2022/07/26 03:09:52;;;;;;;28.73;5.53;;;;;;;27.01;55.37;99039.53;7317441;19;129069;-37
2022/07/26 03:12:17;;;;;;;53.00;7.97;;;;;;;27.01;56.02;99044.00;7317655;19;130616;-37
2022/07/26 03:14:42;;;;;;;22.30;4.73;;;;;;;27.02;55.93;99057.00;7318472;19;129163;-37
2022/07/26 03:17:08;;;;;;;32.80;6.47;;;;;;;26.95;55.59;99045.56;7317775;19;130058;-42
2022/07/26 03:19:33;;;;;;;25.20;5.63;;;;;;;27.02;56.38;99053.56;7318229;19;129982;-43
2022/07/26 03:21:59;;;;;;;38.37;6.67;;;;;;;26.97;56.03;99045.38;7316943;19;129644;-39
2022/07/26 03:24:24;;;;;;;31.63;6.20;;;;;;;27.03;56.24;99056.00;7318377;19;129469;-41
2022/07/26 03:26:49;;;;;;;28.77;6.07;;;;;;;27.03;56.06;99057.81;7318080;19;129552;-41
2022/07/26 03:29:15;;;;;;;34.40;6.17;;;;;;;27.03;55.61;99056.00;7317032;19;129485;-41
2022/07/26 03:31:40;;;;;;;21.30;5.50;;;;;;;27.02;56.00;99059.66;7318305;19;129438;-41
2022/07/26 03:34:05;;;;;;;40.93;6.47;;;;;;;27.02;55.86;99050.91;7318251;19;130446;-43
2022/07/26 03:36:31;;;;;;;32.37;5.80;;;;;;;27.03;55.85;99045.44;7318032;19;129218;-41
2022/07/26 03:38:56;;;;;;;43.00;6.53;;;;;;;27.03;55.51;99047.25;7317243;19;128995;-41
2022/07/26 03:41:22;;;;;;;21.40;5.37;;;;;;;27.03;55.77;99039.34;7317892;19;128955;-41
2022/07/26 03:43:47;;;;;;;22.17;4.83;;;;;;;27.02;56.08;99029.81;7318915;19;130519;-41
2022/07/26 03:46:12;;;;;;;27.90;5.33;;;;;;;27.02;55.84;99041.19;7318539;19;129379;-43
2022/07/26 03:48:38;;;;;;;27.63;5.73;;;;;;;27.01;56.61;99049.28;7317539;19;128997;-40
2022/07/26 03:51:03;;;;;;;34.30;6.20;;;;;;;27.03;56.20;99049.91;7317948;19;130252;-42
2022/07/26 03:53:28;;;;;;;24.63;5.60;;;;;;;27.05;56.08;99042.63;7316993;19;130215;-39
2022/07/26 03:58:38;;;;;;;46.50;6.78;;;;;;;27.03;56.30;99034.06;7316080;19;129101;-40
2022/07/26 04:01:04;;;;;;;43.20;6.57;;;;;;;27.00;55.91;99034.44;7314457;19;130922;-43
2022/07/26 04:03:29;;;;;;;19.47;4.67;;;;;;;27.01;55.57;99046.66;7317797;19;130266;-39
2022/07/26 04:05:54;;;;;;;59.67;7.87;;;;;;;26.98;55.75;99047.00;7315282;19;130069;-38
2022/07/26 04:08:20;;;;;;;58.90;7.57;;;;;;;27.05;56.10;99053.16;7313030;19;129009;-40
2022/07/26 04:10:46;;;;;;;32.07;5.77;;;;;;;27.03;55.62;99049.91;7316829;19;130248;-38
2022/07/26 04:13:12;;;;;;;33.45;5.57;;;;;;;27.05;55.95;99053.16;7316616;19;129202;-37
2022/07/26 04:15:37;;;;;;;24.33;4.43;;;;;;;27.04;56.16;99051.56;7316087;19;129129;-42
2022/07/26 04:18:03;;;;;;;55.07;7.40;;;;;;;27.03;55.37;99055.16;7309837;19;129861;-40
2022/07/26 04:20:28;;;;;;;22.10;5.03;;;;;;;26.99;56.07;99059.22;7316168;19;129190;-42
2022/07/26 04:22:54;;;;;;;45.97;6.63;;;;;;;27.03;56.33;99060.44;7311472;19;130147;-42
2022/07/26 04:25:19;;;;;;;31.73;6.13;;;;;;;27.05;55.95;99063.72;7315941;19;131544;-41
2022/07/26 04:27:45;;;;;;;19.77;4.70;;;;;;;27.04;55.81;99057.63;7315096;19;129407;-40
2022/07/26 04:30:11;;;;;;;54.60;7.23;;;;;;;27.05;55.79;99053.16;7315611;19;130152;-37
2022/07/26 04:32:36;;;;;;;16.37;4.27;;;;;;;27.04;55.92;99056.81;7316195;19;130391;-40
2022/07/26 04:35:02;;;;;;;36.60;5.53;;;;;;;27.04;55.63;99057.63;7313817;19;129439;-40
2022/07/26 04:37:27;;;;;;;45.40;6.57;;;;;;;27.08;56.01;99063.34;7310973;19;129529;-43
2022/07/26 04:39:53;;;;;;;49.17;7.17;;;;;;;27.04;55.59;99067.38;7311922;19;129552;-36
2022/07/26 04:42:18;;;;;;;33.97;5.83;;;;;;;27.05;55.64;99064.56;7312634;19;129877;-34
2022/07/26 04:44:44;;;;;;;40.80;5.83;;;;;;;27.07;56.10;99067.00;7313342;19;130619;-46
2022/07/26 04:47:09;;;;;;;23.27;5.50;;;;;;;27.05;55.86;99069.81;7311944;19;130279;-40
2022/07/26 04:49:34;;;;;;;30.77;5.63;;;;;;;27.06;56.41;99070.63;7314332;19;130740;-38
2022/07/26 04:52:00;;;;;;;41.33;6.07;;;;;;;27.06;55.89;99075.91;7314313;19;129230;-39
2022/07/26 04:54:25;;;;;;;40.53;6.30;;;;;;;27.05;56.00;99075.09;7313376;19;130048;-36
2022/07/26 04:56:51;;;;;;;40.57;6.17;;;;;;;27.05;55.67;99082.19;7303901;19;130369;-36
2022/07/26 04:59:16;;;;;;;37.30;6.40;;;;;;;27.02;56.17;99074.66;7310975;19;132646;-42
2022/07/26 05:01:43;;;;;;;43.23;6.17;;;;;;;27.00;55.56;99081.94;7312102;19;129263;-42
2022/07/26 05:04:09;;;;;;;31.98;5.57;;;;;;;27.04;55.26;99078.72;7315081;19;131406;-36
2022/07/26 05:06:34;;;;;;;25.43;5.13;;;;;;;26.96;55.47;99059.59;7311840;19;130143;-36
2022/07/26 05:09:00;;;;;;;65.43;8.10;;;;;;;27.04;55.88;99078.72;7309954;19;130606;-35
2022/07/26 05:11:25;;;;;;;25.30;5.30;;;;;;;27.05;56.36;99085.66;7316153;19;129700;-36
2022/07/26 05:13:51;;;;;;;35.53;5.93;;;;;;;27.07;55.50;99078.38;7314533;19;128898;-40
2022/07/26 05:16:16;;;;;;;19.00;4.73;;;;;;;27.07;55.47;99082.84;7314225;19;129656;-36
2022/07/26 05:18:41;;;;;;;52.83;6.60;;;;;;;27.07;56.94;99077.56;7313196;19;129364;-40
2022/07/26 05:21:07;;;;;;;34.77;5.73;;;;;;;27.03;56.64;99076.28;7315502;19;129881;-36
2022/07/26 05:23:32;;;;;;;39.80;6.50;;;;;;;27.09;56.58;99096.66;7315047;19;129662;-35
2022/07/26 05:25:58;;;;;;;46.33;6.63;;;;;;;27.10;55.80;99087.72;7314155;19;129027;-36
2022/07/26 05:28:23;;;;;;;26.80;5.17;;;;;;;27.06;56.18;99097.00;7311387;19;130402;-39
2022/07/26 05:30:49;;;;;;;21.27;4.37;;;;;;;27.06;55.55;99089.91;7313859;19;130142;-37
2022/07/26 05:33:14;;;;;;;25.13;4.90;;;;;;;27.05;56.07;99082.19;7314447;19;128940;-34
2022/07/26 05:35:39;;;;;;;24.17;4.97;;;;;;;26.96;55.49;99070.94;7315419;19;128873;-39
2022/07/26 05:38:05;;;;;;;153.10;15.03;;;;;;;27.03;56.01;99092.94;7302107;19;129110;-41
2022/07/26 05:40:30;;;;;;;24.27;5.07;;;;;;;27.00;55.73;99097.78;7311267;19;130600;-40
2022/07/26 05:42:56;;;;;;;28.23;5.70;;;;;;;26.97;56.13;99103.41;7310389;19;130666;-37
2022/07/26 05:45:21;;;;;;;24.13;5.30;;;;;;;26.88;56.69;99089.53;7315157;19;129054;-39
2022/07/26 05:47:50;;;;;;;23.23;4.87;;;;;;;26.93;57.52;99102.97;7312378;19;130315;-32
2022/07/26 05:50:16;;;;;;;25.63;4.72;;;;;;;26.86;56.56;99089.72;7313742;19;129872;-35
2022/07/26 05:52:41;;;;;;;34.37;6.03;;;;;;;26.92;56.71;99096.06;7314586;19;129033;-38
2022/07/26 05:55:07;;;;;;;27.43;5.53;;;;;;;26.92;57.01;99098.72;7314559;19;128935;-39
2022/07/26 05:57:32;;;;;;;22.10;4.90;;;;;;;26.92;57.61;99104.78;7313185;19;129681;-35
2022/07/26 05:59:58;;;;;;;23.43;4.63;;;;;;;26.90;57.40;99103.34;7314527;19;129736;-32
2022/07/26 06:02:23;;;;;;;24.53;5.13;;;;;;;26.91;57.13;99100.53;7313013;19;129551;-36
2022/07/26 06:04:49;;;;;;;23.03;5.03;;;;;;;26.93;56.63;99108.25;7315304;19;129306;-41
2022/07/26 06:07:15;;;;;;;36.43;6.10;;;;;;;26.90;56.34;99104.19;7311640;19;129445;-38
2022/07/26 06:09:41;;;;;;;24.53;5.30;;;;;;;26.92;56.67;99104.78;7314569;19;129491;-37
2022/07/26 06:12:06;;;;;;;24.58;5.30;;;;;;;26.92;56.87;99110.06;7314593;19;129011;-45
2022/07/26 06:14:32;;;;;;;27.43;5.20;;;;;;;26.91;56.78;99111.06;7314197;19;129402;-37
2022/07/26 06:16:57;;;;;;;23.60;4.97;;;;;;;26.92;57.11;99110.06;7313009;19;129020;-41
2022/07/26 06:19:23;;;;;;;27.10;5.20;;;;;;;26.93;56.82;99119.63;7313822;19;129547;-34
2022/07/26 06:21:48;;;;;;;26.30;4.90;;;;;;;26.93;57.25;99124.91;7313616;19;128894;-34
2022/07/26 06:24:13;;;;;;;22.90;4.73;;;;;;;26.92;57.31;99120.63;7314976;19;129136;-40
2022/07/26 06:26:39;;;;;;;34.30;5.40;;;;;;;26.94;56.91;99115.97;7313772;19;129177;-37
2022/07/26 06:29:05;;;;;;;27.47;4.93;;;;;;;26.88;56.97;99116.72;7313959;19;129898;-37
2022/07/26 06:31:30;;;;;;;36.13;5.53;;;;;;;26.93;56.61;99124.91;7314711;19;129417;-36
2022/07/26 06:33:55;;;;;;;23.00;4.40;;;;;;;26.94;57.00;99131.81;7313251;19;129407;-41
2022/07/26 06:36:21;;;;;;;12.53;3.73;;;;;;;26.94;57.29;99131.81;7312518;19;130049;-38
2022/07/26 06:38:46;;;;;;;31.80;5.23;;;;;;;26.94;57.33;99123.88;7309006;19;131603;-37
2022/07/26 06:41:12;;;;;;;26.23;4.87;;;;;;;26.94;57.10;99126.53;7311012;19;129539;-43
2022/07/26 06:43:38;;;;;;;62.23;7.47;;;;;;;26.94;57.62;99134.44;7309370;19;128854;-40
2022/07/26 06:46:03;;;;;;;33.73;5.60;;;;;;;26.96;57.21;99128.19;7312363;19;130229;-38
2022/07/26 06:48:28;;;;;;;32.87;5.30;;;;;;;26.88;57.56;99122.00;7308747;19;129585;-41
2022/07/26 06:50:54;;;;;;;25.07;4.47;;;;;;;26.92;57.50;99133.81;7312873;19;129221;-36
2022/07/26 06:53:19;;;;;;;24.30;4.73;;;;;;;26.94;57.93;99131.81;7311556;19;129419;-36
2022/07/26 06:55:45;;;;;;;25.57;5.13;;;;;;;26.92;57.23;99133.00;7312919;19;129483;-35
2022/07/26 06:58:10;;;;;;;43.00;6.10;;;;;;;26.94;57.80;99134.44;7310227;19;130442;-34
2022/07/26 07:00:35;;;;;;;30.80;4.87;;;;;;;26.94;57.59;99134.44;7311360;19;130945;-37
2022/07/26 07:03:01;;;;;;;27.67;4.77;;;;;;;26.95;57.66;99130.00;7308577;19;129436;-34
2022/07/26 07:05:26;;;;;;;22.80;4.40;;;;;;;26.92;57.82;99133.81;7312123;19;130952;-34
2022/07/26 07:07:52;;;;;;;29.17;5.03;;;;;;;26.94;57.70;99137.09;7308231;19;129210;-34
2022/07/26 07:10:17;;;;;;;15.87;4.30;;;;;;;26.94;57.60;99133.63;7312048;19;128959;-38
2022/07/26 07:12:43;;;;;;;35.00;5.20;;;;;;;26.93;57.70;99134.63;7308940;19;129062;-39
2022/07/26 07:15:10;;;;;;;22.67;4.35;;;;;;;26.92;57.37;99144.34;7312139;19;130942;-32
2022/07/26 07:17:36;;;;;;;20.58;3.92;;;;;;;26.92;58.04;99135.66;7302379;19;130056;-37
2022/07/26 07:20:03;;;;;;;27.17;4.57;;;;;;;26.92;57.27;99144.34;7310209;19;130278;-43
2022/07/26 07:22:29;;;;;;;18.42;4.35;;;;;;;26.92;58.03;99141.72;7309373;19;128859;-36
2022/07/26 07:24:54;;;;;;;25.67;4.33;;;;;;;26.92;58.11;99136.44;7311006;19;129653;-37
2022/07/26 07:27:19;;;;;;;58.43;6.90;;;;;;;26.93;58.36;99134.63;7303705;19;129187;-41
2022/07/26 07:29:45;;;;;;;64.93;7.83;;;;;;;26.93;57.69;99140.75;7296897;19;128919;-38
2022/07/26 07:32:10;;;;;;;72.83;8.17;;;;;;;26.86;58.29;99126.66;7295056;19;130558;-45
2022/07/26 07:34:35;;;;;;;67.63;8.20;;;;;;;26.94;58.26;99142.34;7295825;19;130555;-43
2022/07/26 07:37:01;;;;;;;17.00;4.13;;;;;;;26.87;58.61;99135.38;7301995;19;131808;-38
2022/07/26 07:39:27;;;;;;;23.93;4.43;;;;;;;26.94;58.54;99147.63;7310678;19;129771;-38
2022/07/26 07:41:52;;;;;;;36.87;5.33;;;;;;;26.93;58.46;99139.91;7307732;19;130480;-32
2022/07/26 07:44:18;;;;;;;21.50;3.93;;;;;;;26.92;58.18;99144.34;7312069;19;129724;-32
2022/07/26 07:46:43;;;;;;;48.90;6.17;;;;;;;26.94;58.24;99139.72;7310107;19;129196;-40
2022/07/26 07:49:09;;;;;;;17.20;3.63;;;;;;;26.92;57.85;99139.09;7310945;19;129870;-39
2022/07/26 07:51:34;;;;;;;29.27;4.68;;;;;;;26.92;58.17;99139.09;7311077;19;129522;-30
2022/07/26 07:54:00;;;;;;;29.07;4.80;;;;;;;26.92;58.35;99139.09;7316147;19;129432;-36
2022/07/26 07:56:25;;;;;;;21.03;3.83;;;;;;;26.91;58.32;99142.75;7317447;19;129135;-37
2022/07/26 07:58:51;;;;;;;48.03;6.13;;;;;;;26.90;58.26;99143.75;7314642;19;130001;-41
2022/07/26 08:01:16;;;;;;;28.57;4.63;;;;;;;26.89;57.64;99128.91;7316553;19;129500;-33
2022/07/26 08:03:41;;;;;;;21.67;3.87;;;;;;;26.91;57.25;99136.63;7315427;19;129078;-37
2022/07/26 08:06:08;;;;;;;46.87;6.07;;;;;;;26.91;58.63;99134.81;7316395;19;129964;-37
2022/07/26 08:08:35;;;;;;;27.00;3.92;;;;;;;26.89;58.33;99152.66;7315331;19;129986;-37
2022/07/26 08:11:00;;;;;;;13.60;3.38;;;;;;;26.91;58.56;99150.66;7315956;19;128879;-45
2022/07/26 08:13:25;;;;;;;48.33;6.17;;;;;;;26.89;58.14;99139.47;7317189;19;130873;-35
2022/07/26 08:15:52;;;;;;;29.00;4.57;;;;;;;26.91;58.04;99136.63;7317591;19;129163;-39
2022/07/26 08:18:19;;;;;;;71.10;8.00;;;;;;;26.89;58.33;99134.19;7313791;19;129876;-41
2022/07/26 08:20:44;;;;;;;27.85;3.95;;;;;;;26.86;57.88;99134.56;7318039;19;129842;-37
2022/07/26 08:23:10;;;;;;;38.17;4.80;;;;;;;26.90;58.22;99140.28;7315217;19;130382;-38
2022/07/26 08:25:35;;;;;;;26.33;3.97;;;;;;;26.84;57.81;99128.63;7317664;19;130170;-35
2022/07/26 08:28:00;;;;;;;67.77;7.73;;;;;;;26.88;58.05;99134.38;7307776;19;130222;-40
2022/07/26 08:30:26;;;;;;;61.60;7.00;;;;;;;26.90;58.49;99145.56;7304020;19;132077;-44
2022/07/26 08:32:51;;;;;;;56.60;6.80;;;;;;;26.89;58.62;99152.66;7300403;19;130821;-35
2022/07/26 08:35:17;;;;;;;35.33;5.13;;;;;;;26.90;58.07;99156.94;7301568;19;130375;-36
2022/07/26 08:37:42;;;;;;;8.13;2.77;;;;;;;26.89;57.92;99160.56;7315381;19;129400;-34
2022/07/26 08:40:07;;;;;;;44.67;5.90;;;;;;;26.90;58.23;99161.41;7316090;19;129334;-41
2022/07/26 08:42:33;;;;;;;22.57;3.67;;;;;;;26.90;57.90;99164.03;7315707;19;129610;-36
2022/07/26 08:44:58;;;;;;;12.27;3.33;;;;;;;26.89;58.28;99171.13;7316815;19;130072;-36
2022/07/26 08:47:24;;;;;;;28.03;4.20;;;;;;;26.90;58.40;99178.03;7316108;19;130853;-39
2022/07/26 08:49:49;;;;;;;24.90;3.87;;;;;;;26.89;58.55;99172.97;7316438;19;129021;-32
2022/07/26 08:52:15;;;;;;;28.40;4.20;;;;;;;26.88;57.75;99158.13;7316890;19;129541;-34
2022/07/26 08:54:44;;;;;;;22.67;3.40;;;;;;;26.89;59.42;99165.03;7316168;19;130436;-36
2022/07/26 08:57:10;;;;;;;21.15;3.50;;;;;;;26.79;58.09;99149.47;7316163;19;129782;-34
2022/07/26 08:59:35;;;;;;;30.33;4.00;;;;;;;26.88;58.12;99164.22;7314068;19;129751;-34
2022/07/26 09:02:04;;;;;;;20.53;3.20;;;;;;;26.88;58.64;99171.31;7314611;19;130623;-41
2022/07/26 09:04:34;;;;;;;33.67;4.15;;;;;;;26.78;58.46;99155.78;7313569;19;129183;-33
2022/07/26 09:07:11;;;;;;;6.80;2.45;;;;;;;26.87;59.17;99167.84;7315522;19;128847;-33
2022/07/26 09:10:05;;;;;;;29.25;4.13;;;;;;;26.87;60.21;99167.84;7315502;19;129319;-36
2022/07/26 09:12:31;;;;;;;25.23;3.72;;;;;;;26.86;58.69;99168.84;7315775;19;129100;-35
2022/07/26 09:14:58;;;;;;;29.50;3.83;;;;;;;26.87;58.91;99164.41;7314488;19;129322;-37
2022/07/26 09:17:35;;;;;;;35.03;4.85;;;;;;;26.84;58.25;99165.56;7312445;19;129522;-36
2022/07/26 09:20:11;;;;;;;21.50;3.33;;;;;;;26.84;59.35;99168.22;7315937;19;130891;-38
2022/07/26 09:22:38;;;;;;;30.05;3.92;;;;;;;26.83;58.89;99171.88;7313982;19;129197;-38
2022/07/26 09:25:20;;;;;;;21.55;3.17;;;;;;;26.86;60.03;99170.66;7314382;19;131157;-37
2022/07/26 09:27:45;;;;;;;23.77;3.30;;;;;;;26.84;58.65;99168.22;7312870;19;129254;-43
2022/07/26 09:30:11;;;;;;;46.73;6.00;;;;;;;26.85;58.91;99180.41;7311646;19;129331;-39
2022/07/26 09:32:37;;;;;;;29.00;3.53;;;;;;;26.84;58.64;99168.22;7313968;19;129066;-37
2022/07/26 09:35:11;;;;;;;13.30;2.53;;;;;;;26.83;60.06;99168.41;7315875;19;130592;-36
2022/07/26 09:37:39;;;;;;;30.77;4.07;;;;;;;26.84;58.99;99183.25;7312724;19;131384;-35
2022/07/26 09:40:09;;;;;;;20.90;3.35;;;;;;;26.84;59.88;99177.97;7315548;19;129134;-35
2022/07/26 09:42:35;;;;;;;21.40;2.97;;;;;;;26.83;58.91;99177.13;7313591;19;130014;-38
2022/07/26 09:45:00;;;;;;;19.90;3.20;;;;;;;26.82;58.82;99172.06;7312755;19;130408;-42
2022/07/26 09:47:39;;;;;;;9.50;2.20;;;;;;;26.84;59.83;99178.75;7313089;19;129162;-40
2022/07/26 09:50:09;;;;;;;21.02;3.22;;;;;;;26.82;60.06;99174.69;7314342;19;129077;-38
2022/07/26 09:52:35;;;;;;;43.95;5.07;;;;;;;26.82;58.66;99175.47;7313127;19;130176;-40
2022/07/26 09:55:05;;;;;;;23.30;2.90;;;;;;;26.81;59.60;99179.13;7314338;19;129834;-39
2022/07/26 09:57:33;;;;;;;22.35;3.35;;;;;;;26.73;59.02;99160.78;7312736;19;129409;-36
2022/07/26 10:00:02;;;;;;;22.08;2.97;;;;;;;26.74;58.75;99162.41;7314392;19;130281;-36
2022/07/26 10:02:28;;;;;;;19.25;2.78;;;;;;;26.82;58.45;99169.41;7315430;19;131300;-45
2022/07/26 10:04:53;;;;;;;26.43;3.53;;;;;;;26.80;58.31;99161.69;7314129;19;130234;-39
2022/07/26 10:07:19;;;;;;;41.57;4.87;;;;;;;26.81;58.43;99162.47;7312011;19;130173;-39
2022/07/26 10:09:56;;;;;;;32.10;3.70;;;;;;;26.82;59.66;99170.22;7312686;19;129873;-37
2022/07/26 10:12:25;;;;;;;13.80;2.88;;;;;;;26.81;58.13;99167.75;7314885;19;130203;-35
2022/07/26 10:14:50;;;;;;;27.73;3.50;;;;;;;26.80;58.34;99161.69;7311190;19;129682;-33
2022/07/26 10:17:28;;;;;;;62.57;6.23;;;;;;;26.76;59.60;99154.28;7311788;19;129477;-37
2022/07/26 10:20:09;;;;;;;60.63;5.85;;;;;;;26.82;59.83;99172.06;7307879;19;130169;-39
2022/07/26 10:22:44;;;;;;;18.50;2.63;;;;;;;26.80;59.88;99164.31;7313373;19;129624;-35
2022/07/26 10:25:15;;;;;;;21.55;2.67;;;;;;;26.79;59.56;99170.59;7313142;19;130298;-42
2022/07/26 10:27:43;;;;;;;50.08;5.38;;;;;;;26.80;58.74;99172.22;7301551;19;130568;-41
2022/07/26 10:30:23;;;;;;;20.95;2.90;;;;;;;26.82;59.74;99172.84;7313547;19;129569;-35
2022/07/26 10:33:00;;;;;;;59.20;5.90;;;;;;;26.82;59.86;99170.22;7312068;19;130134;-35
2022/07/26 10:35:28;;;;;;;22.48;3.15;;;;;;;26.72;59.47;99159.16;7311970;19;131472;-35
2022/07/26 10:38:34;;;;;;;61.55;5.97;;;;;;;26.74;59.67;99154.47;7309133;19;129440;-39
2022/07/26 10:41:02;;;;;;;27.25;3.20;;;;;;;26.80;59.37;99169.59;7310440;19;129141;-34
2022/07/26 10:43:28;;;;;;;20.58;2.78;;;;;;;26.79;58.62;99170.59;7310361;19;129222;-38
2022/07/26 10:46:15;;;;;;;28.95;3.42;;;;;;;26.80;60.66;99177.50;7313483;19;130216;-37
2022/07/26 10:49:05;;;;;;;24.63;3.40;;;;;;;26.79;60.19;99178.50;7312005;19;129007;-40
2022/07/26 10:51:38;;;;;;;36.53;4.10;;;;;;;26.79;59.95;99186.41;7312826;19;129764;-37
2022/07/26 10:54:12;;;;;;;21.90;2.78;;;;;;;26.78;59.39;99176.88;7311242;19;130280;-34
2022/07/26 10:56:38;;;;;;;8.23;2.10;;;;;;;26.68;59.17;99152.59;7312565;19;130601;-33
2022/07/26 10:59:04;;;;;;;29.35;3.63;;;;;;;26.78;58.87;99173.41;7308889;19;130616;-35
2022/07/26 11:01:42;;;;;;;21.27;2.70;;;;;;;26.80;60.13;99171.41;7312644;19;129565;-39
2022/07/26 11:04:18;;;;;;;11.25;1.90;;;;;;;26.77;59.57;99177.88;7310510;19;131106;-39
2022/07/26 11:06:44;;;;;;;13.73;2.28;;;;;;;26.78;58.69;99174.22;7311238;19;130282;-39
2022/07/26 11:09:11;;;;;;;23.85;2.88;;;;;;;26.74;58.81;99167.66;7311765;19;129026;-36
2022/07/26 11:11:37;;;;;;;19.52;2.67;;;;;;;26.77;58.20;99167.34;7312239;19;128903;-37
2022/07/26 11:14:07;;;;;;;27.30;3.17;;;;;;;26.75;59.99;99168.50;7311309;19;130191;-32
2022/07/26 11:16:41;;;;;;;26.38;2.95;;;;;;;26.77;59.62;99172.59;7312007;19;129180;-35
2022/07/26 11:19:20;;;;;;;27.58;3.05;;;;;;;26.79;60.40;99175.84;7312293;19;129361;-36